< < Back
Terminal Aerodrome Forecast


Current Version              Previous Versions:   1  2  3  4  5  6  7  8  9  

Terminal Aerodrome Forecast

900
FTUS42 KFFC 202157 AAA
TAFPDK
TAF AMD
KPDK 202157Z 2022/2118 30009KT P6SM FEW250
     FM210000 33003KT P6SM FEW250
     FM211700 03005KT P6SM FEW250=

Latest METAR

393
SAUS70 KWBC 210958
MTRPDK
METAR KPDK 210953Z AUTO 00000KT 8SM CLR M01/M02 A3029 RMK AO2 SLP265
T10061022


USA.gov is the U.S. government's official web portal to all federal, state and local government web resources and services.